Time;durP1;ratioP1;P1;durP2;ratioP2;P2;SDS_P1;SDS_P2;PMS_P1;PMS_P2;Temp;Humidity;BMP_temperature;BMP_pressure;BME280_temperature;BME280_humidity;BME280_pressure;Samples;Min_cycle;Max_cycle;Signal;HPM_P1;HPM_P2
2023/09/01 00:05:40;;;;;;;3.72;2.20;;;;;;;12.08;74.50;100803.75;15601604;28;20120;-51
2023/09/01 00:13:14;;;;;;;;;;;;;;;11.96;74.32;100813.56;15582881;28;20129;-53
2023/09/01 00:20:47;;;;;;;3.10;1.90;;;;;;;12.20;73.08;100818.13;15580320;28;19943;-55
2023/09/01 00:28:26;;;;;;;4.30;2.30;;;;;;;12.20;72.73;100834.28;15601019;28;20665;-52
2023/09/01 00:36:00;;;;;;;3.55;2.30;;;;;;;12.24;72.50;100831.97;15599418;28;20042;-51
2023/09/01 00:43:36;;;;;;;6.97;2.28;;;;;;;11.97;73.24;100826.78;15611594;28;20441;-53
2023/09/01 00:51:09;;;;;;;7.35;2.58;;;;;;;11.83;73.65;100827.09;15619268;28;20061;-52
2023/09/01 00:58:44;;;;;;;3.03;2.72;;;;;;;11.64;73.73;100826.13;15618348;28;20053;-53
2023/09/01 01:06:24;;;;;;;3.75;2.80;;;;;;;11.76;73.35;100827.09;15572262;28;20391;-50
2023/09/01 01:14:00;;;;;;;4.50;2.80;;;;;;;11.91;73.42;100826.84;15602307;28;20099;-51
2023/09/01 01:21:37;;;;;;;4.57;3.10;;;;;;;11.70;73.45;100825.25;15600955;28;20068;-51
2023/09/01 01:29:13;;;;;;;5.03;3.40;;;;;;;11.82;72.85;100814.66;15555134;28;20129;-53
2023/09/01 01:36:52;;;;;;;4.75;3.10;;;;;;;11.67;73.28;100813.09;15579617;28;20042;-48
2023/09/01 01:44:30;;;;;;;5.38;3.70;;;;;;;11.67;73.41;100814.94;15598253;28;20049;-50
2023/09/01 01:52:04;;;;;;;4.07;3.50;;;;;;;11.75;72.72;100810.16;15610725;28;20033;-50
2023/09/01 01:59:42;;;;;;;5.15;3.97;;;;;;;11.70;72.94;100814.50;15609392;28;20037;-49
2023/09/01 02:07:15;;;;;;;10.75;3.97;;;;;;;11.43;73.77;100825.41;15591167;28;20041;-51
2023/09/01 02:14:49;;;;;;;4.70;4.22;;;;;;;11.29;73.94;100823.00;15598394;28;20120;-52
2023/09/01 02:22:25;;;;;;;8.98;4.65;;;;;;;11.26;74.23;100824.22;15613078;28;20037;-51
2023/09/01 02:29:59;;;;;;;6.93;4.75;;;;;;;11.21;74.21;100816.81;15610001;28;20128;-52
2023/09/01 02:37:36;;;;;;;10.85;4.50;;;;;;;11.48;73.13;100816.69;15591774;28;20048;-53
2023/09/01 02:45:12;;;;;;;;;;;;;;;11.44;73.17;100832.44;15611640;28;20092;-52
2023/09/01 02:52:47;;;;;;;10.10;5.00;;;;;;;11.27;73.36;100830.44;15610547;28;19952;-51
2023/09/01 03:00:22;;;;;;;7.18;4.93;;;;;;;11.28;73.06;100827.50;15610942;28;20061;-53
2023/09/01 03:07:57;;;;;;;6.20;5.32;;;;;;;11.27;72.46;100828.56;15584385;28;20073;-53
2023/09/01 03:15:34;;;;;;;8.93;5.68;;;;;;;11.24;72.69;100832.50;15556355;28;20053;-54
2023/09/01 03:23:07;;;;;;;7.72;5.97;;;;;;;11.05;73.07;100835.25;15588887;28;20067;-52
2023/09/01 03:30:44;;;;;;;8.18;5.55;;;;;;;11.14;73.18;100852.78;15595722;28;20038;-51
2023/09/01 03:38:18;;;;;;;6.60;5.50;;;;;;;10.96;74.16;100854.28;15594421;28;20129;-53
2023/09/01 03:45:52;;;;;;;8.98;5.93;;;;;;;11.00;73.06;100849.31;15607376;28;20128;-46
2023/09/01 03:53:26;;;;;;;9.93;6.45;;;;;;;10.98;73.24;100854.06;15601871;28;20049;-50
2023/09/01 04:01:08;;;;;;;6.75;5.78;;;;;;;11.02;72.99;100859.84;15607530;28;20041;-45
2023/09/01 04:08:41;;;;;;;10.18;6.82;;;;;;;11.10;72.61;100859.63;15607821;28;20099;-50
2023/09/01 04:16:16;;;;;;;;;;;;;;;10.79;72.77;100855.75;15602369;28;20065;-46
2023/09/01 04:23:49;;;;;;;10.57;5.53;;;;;;;10.75;73.96;100867.13;15611045;28;19921;-49
2023/09/01 04:31:28;;;;;;;7.35;6.00;;;;;;;10.73;74.03;100870.84;15619506;28;20034;-46
2023/09/01 04:39:06;;;;;;;11.30;5.93;;;;;;;10.93;73.56;100878.88;15618332;28;20129;-44
2023/09/01 04:46:40;;;;;;;11.13;6.25;;;;;;;11.10;73.72;100879.25;15609455;28;20057;-46
2023/09/01 04:54:15;;;;;;;9.40;6.00;;;;;;;11.04;74.30;100888.16;15586470;28;20049;-47
2023/09/01 05:01:49;;;;;;;7.95;6.18;;;;;;;11.13;74.15;100878.81;15592485;28;20478;-44
2023/09/01 05:09:22;;;;;;;7.32;5.97;;;;;;;10.91;75.56;100893.53;15614815;28;20445;-49
2023/09/01 05:16:57;;;;;;;9.73;6.00;;;;;;;10.44;77.75;100901.63;15594578;28;20045;-47
2023/09/01 05:24:30;;;;;;;6.57;5.40;;;;;;;10.89;76.45;100901.81;15604161;28;20038;-46
2023/09/01 05:32:05;;;;;;;8.82;5.82;;;;;;;11.21;75.95;100891.22;15603581;28;20164;-45
2023/09/01 05:39:39;;;;;;;7.47;5.75;;;;;;;11.52;75.64;100890.50;15597512;28;20503;-47
2023/09/01 05:47:14;;;;;;;6.78;5.70;;;;;;;10.94;78.39;100904.69;15581951;28;20175;-49
2023/09/01 05:54:48;;;;;;;5.55;4.90;;;;;;;11.39;77.24;100909.38;15614192;28;20053;-45
2023/09/01 06:02:22;;;;;;;7.30;5.60;;;;;;;12.37;75.71;100909.13;15599117;28;20038;-47
2023/09/01 06:10:04;;;;;;;7.05;5.53;;;;;;;12.44;75.30;100924.16;15605146;28;20391;-47
2023/09/01 06:17:38;;;;;;;;;;;;;;;12.84;75.28;100928.44;15563519;28;20042;-48
2023/09/01 06:25:12;;;;;;;8.20;5.10;;;;;;;13.07;74.49;100933.19;15571064;28;19932;-49
2023/09/01 06:32:47;;;;;;;10.00;5.00;;;;;;;13.48;74.80;100936.13;15608471;28;20041;-46
2023/09/01 06:40:20;;;;;;;6.60;4.70;;;;;;;13.91;73.28;100931.66;15579122;28;20041;-45
2023/09/01 06:47:56;;;;;;;5.10;4.25;;;;;;;14.12;73.28;100933.84;15577028;28;20050;-47
2023/09/01 06:55:29;;;;;;;6.18;3.97;;;;;;;14.37;73.38;100943.69;15557238;28;20053;-48
2023/09/01 07:03:04;;;;;;;;;;;;;;;14.48;72.60;100953.72;15571906;28;20169;-51
2023/09/01 07:10:37;;;;;;;5.90;3.58;;;;;;;15.35;68.40;100945.84;15569679;28;19925;-46
2023/09/01 07:18:11;;;;;;;;;;;;;;;15.52;68.26;100951.31;15599210;28;20455;-47
2023/09/01 07:25:45;;;;;;;7.68;3.97;;;;;;;15.96;69.72;100954.44;15604063;28;20436;-49
2023/09/01 07:33:21;;;;;;;5.05;3.63;;;;;;;16.44;67.13;100961.28;15577577;28;20069;-46
2023/09/01 07:40:54;;;;;;;5.82;3.72;;;;;;;15.55;68.59;100958.97;15583919;28;20072;-49
2023/09/01 07:48:31;;;;;;;6.35;3.60;;;;;;;16.93;64.51;100961.63;15578090;28;20042;-47
2023/09/01 07:56:05;;;;;;;6.45;3.97;;;;;;;16.35;66.56;100966.28;15591972;28;20106;-48
2023/09/01 08:03:39;;;;;;;9.65;3.88;;;;;;;17.05;64.77;100956.91;15555835;28;20377;-48
2023/09/01 08:11:12;;;;;;;8.40;3.88;;;;;;;17.47;65.69;100962.69;15576413;28;20066;-46
2023/09/01 08:18:47;;;;;;;8.00;3.63;;;;;;;17.97;62.58;100963.63;15561700;28;20041;-46
2023/09/01 08:26:20;;;;;;;7.28;3.40;;;;;;;18.92;60.70;100973.00;15599334;28;20034;-47
2023/09/01 08:33:55;;;;;;;4.22;2.38;;;;;;;18.43;60.35;100966.84;15597853;28;20057;-50
2023/09/01 08:41:28;;;;;;;5.22;2.63;;;;;;;18.93;60.40;100971.94;15606035;28;20068;-46
2023/09/01 08:49:04;;;;;;;5.80;2.28;;;;;;;18.34;61.58;100970.00;15580321;28;20136;-47
2023/09/01 08:56:38;;;;;;;5.63;2.17;;;;;;;19.19;55.45;100974.84;15600315;28;20045;-52
2023/09/01 09:04:13;;;;;;;5.38;1.80;;;;;;;18.94;57.13;100973.56;15608033;28;20132;-50
2023/09/01 09:11:57;;;;;;;4.30;1.75;;;;;;;20.17;56.71;100966.88;15609834;28;20052;-49
2023/09/01 09:19:33;;;;;;;4.35;1.65;;;;;;;20.07;53.21;100964.13;15616315;28;20186;-46
2023/09/01 09:27:07;;;;;;;4.63;1.80;;;;;;;20.26;53.77;100973.47;15616812;28;20129;-45
2023/09/01 09:34:41;;;;;;;10.50;1.70;;;;;;;20.71;52.08;100969.19;15615743;28;20510;-45
2023/09/01 09:42:15;;;;;;;4.93;1.65;;;;;;;20.36;50.76;100967.22;15617548;28;20133;-48
2023/09/01 09:49:50;;;;;;;5.20;1.60;;;;;;;20.87;49.57;100973.56;15616408;28;20131;-50
2023/09/01 09:57:24;;;;;;;4.63;1.40;;;;;;;20.69;50.07;100974.09;15615491;28;20502;-51
2023/09/01 10:04:59;;;;;;;4.20;1.60;;;;;;;20.26;49.36;100981.63;15614599;28;20144;-55
2023/09/01 10:12:34;;;;;;;4.40;1.60;;;;;;;20.56;48.22;100971.91;15609564;28;20104;-52
2023/09/01 10:20:12;;;;;;;3.20;1.52;;;;;;;20.78;49.75;100983.38;15614285;28;20045;-55
2023/09/01 10:28:05;;;;;;;4.82;1.70;;;;;;;20.79;49.68;100979.53;15613771;28;20120;-53
2023/09/01 10:35:43;;;;;;;6.22;1.45;;;;;;;21.49;48.93;100976.22;15613479;28;20107;-53
2023/09/01 10:43:52;;;;;;;5.65;1.75;;;;;;;21.33;46.67;100972.72;15579244;28;20041;-56
2023/09/01 10:51:28;;;;;;;5.07;2.03;;;;;;;21.41;46.42;100968.63;15516387;28;20053;-52
2023/09/01 10:59:05;;;;;;;3.22;1.83;;;;;;;21.55;47.24;100972.41;15610696;28;20111;-58
2023/09/01 11:07:06;;;;;;;4.55;2.10;;;;;;;21.27;47.54;100979.25;15612214;28;20451;-56
2023/09/01 11:14:55;;;;;;;4.43;1.80;;;;;;;21.59;45.40;100970.72;15606115;28;20045;-53
2023/09/01 11:22:30;;;;;;;6.80;2.22;;;;;;;21.30;46.04;100968.59;15609869;28;20038;-55
2023/09/01 11:30:04;;;;;;;6.00;2.20;;;;;;;21.88;46.53;100971.72;15609425;28;20061;-55
2023/09/01 11:37:41;;;;;;;5.68;2.35;;;;;;;21.99;46.47;100980.69;15610527;28;20528;-56
2023/09/01 11:45:16;;;;;;;4.28;2.20;;;;;;;21.42;46.71;100972.97;15608492;28;20037;-52
2023/09/01 11:52:57;;;;;;;5.45;2.45;;;;;;;21.99;43.52;100983.41;15571473;28;20494;-56
2023/09/01 12:00:38;;;;;;;6.10;2.10;;;;;;;22.48;44.44;100998.25;15589715;28;20132;-56
2023/09/01 12:08:13;;;;;;;6.55;2.38;;;;;;;22.39;42.32;100976.94;15593163;28;20423;-57
2023/09/01 12:15:57;;;;;;;4.50;2.30;;;;;;;22.89;42.67;100964.00;15588564;28;20144;-54
2023/09/01 12:23:33;;;;;;;5.72;2.08;;;;;;;24.36;38.91;100963.44;15592839;28;20080;-55
2023/09/01 12:31:09;;;;;;;3.90;1.90;;;;;;;23.23;42.86;100970.56;15576166;28;20056;-55
2023/09/01 12:38:44;;;;;;;3.58;1.90;;;;;;;23.71;38.95;100970.59;15586940;28;20495;-54
2023/09/01 12:46:18;;;;;;;4.82;1.92;;;;;;;23.61;42.26;100975.06;15575987;28;20049;-57
2023/09/01 12:53:52;;;;;;;3.63;2.00;;;;;;;24.31;40.85;100968.16;15596027;28;20048;-53
2023/09/01 13:01:28;;;;;;;4.63;2.03;;;;;;;22.28;44.06;100964.41;15582031;28;20115;-55
2023/09/01 13:09:03;;;;;;;4.55;2.00;;;;;;;22.93;41.90;100972.44;15584719;28;20049;-54
2023/09/01 13:16:38;;;;;;;5.85;2.33;;;;;;;22.89;45.84;100974.13;15580172;28;20103;-54
2023/09/01 13:24:14;;;;;;;2.78;1.60;;;;;;;23.05;45.33;100966.63;15583654;28;20123;-54
2023/09/01 13:31:48;;;;;;;4.22;2.20;;;;;;;22.08;44.32;100959.06;15586852;28;20185;-52
2023/09/01 13:39:23;;;;;;;4.72;1.90;;;;;;;21.64;46.12;100955.16;15591958;28;20133;-52
2023/09/01 13:46:56;;;;;;;6.65;2.20;;;;;;;22.53;46.27;100960.72;15580654;28;20524;-55
2023/09/01 13:54:31;;;;;;;5.78;2.30;;;;;;;22.76;47.51;100969.31;15583417;28;20073;-55
2023/09/01 14:02:04;;;;;;;6.30;2.15;;;;;;;22.18;48.85;100950.00;15584068;28;20509;-55
2023/09/01 14:09:40;;;;;;;4.45;2.22;;;;;;;22.41;48.85;100955.59;15592287;28;20042;-54
2023/09/01 14:17:13;;;;;;;4.53;2.33;;;;;;;21.70;51.27;100955.94;15579600;28;20033;-53
2023/09/01 14:24:48;;;;;;;6.38;2.20;;;;;;;22.11;49.24;100947.56;15582573;28;20475;-52
2023/09/01 14:32:21;;;;;;;4.47;2.05;;;;;;;21.89;49.38;100951.50;15584645;28;20124;-56
2023/09/01 14:39:56;;;;;;;6.70;2.05;;;;;;;21.84;50.02;100948.78;15599428;28;20080;-55
2023/09/01 14:47:30;;;;;;;5.07;2.40;;;;;;;20.94;50.09;100953.34;15607222;28;20128;-56
2023/09/01 14:55:06;;;;;;;6.13;2.63;;;;;;;22.03;48.59;100964.53;15601842;28;20136;-55
2023/09/01 15:02:41;;;;;;;5.88;3.25;;;;;;;22.20;52.74;100956.84;15611451;28;20045;-51
2023/09/01 15:10:17;;;;;;;5.95;2.80;;;;;;;22.20;53.02;100954.09;15607782;28;20045;-53
2023/09/01 15:17:51;;;;;;;4.72;2.60;;;;;;;21.39;51.47;100960.69;15599561;28;20060;-54
2023/09/01 15:25:27;;;;;;;4.78;2.40;;;;;;;21.97;50.40;100966.50;15605640;28;20094;-53
2023/09/01 15:33:01;;;;;;;4.93;2.60;;;;;;;21.69;54.02;100973.44;15602627;28;20103;-53
2023/09/01 15:40:43;;;;;;;4.95;2.58;;;;;;;21.73;54.20;100965.47;15607111;28;20038;-55
2023/09/01 15:48:18;;;;;;;7.70;3.00;;;;;;;21.73;56.22;100970.94;15602604;28;20347;-48
2023/09/01 15:55:55;;;;;;;6.82;3.15;;;;;;;21.83;54.93;100974.47;15600368;28;20064;-52
2023/09/01 16:03:29;;;;;;;4.68;3.05;;;;;;;21.83;54.70;100979.13;15608015;28;20042;-46
2023/09/01 16:11:05;;;;;;;4.65;3.17;;;;;;;21.53;56.03;100980.84;15608765;28;20495;-50
2023/09/01 16:18:38;;;;;;;5.53;3.17;;;;;;;21.34;56.20;100977.06;15596179;28;20125;-47
2023/09/01 16:26:14;;;;;;;9.05;3.70;;;;;;;21.32;57.03;100971.09;15609446;28;20046;-51
2023/09/01 16:33:47;;;;;;;7.15;3.22;;;;;;;21.04;57.42;100962.38;15609649;28;20038;-57
2023/09/01 16:41:22;;;;;;;4.50;3.13;;;;;;;21.10;57.39;100965.91;15592748;28;20056;-53
2023/09/01 16:48:56;;;;;;;6.03;3.30;;;;;;;20.90;57.54;100983.13;15620051;28;20433;-53
2023/09/01 16:56:40;;;;;;;6.32;3.95;;;;;;;20.92;57.04;100974.66;15590241;28;20056;-53
2023/09/01 17:04:13;;;;;;;12.93;6.93;;;;;;;20.87;57.43;100968.09;15620133;28;20104;-50
2023/09/01 17:11:50;;;;;;;199.30;12.38;;;;;;;20.50;57.58;100978.44;15590136;28;20070;-56
2023/09/01 17:19:25;;;;;;;7.68;3.95;;;;;;;20.44;57.79;100979.50;15618206;28;20091;-52
2023/09/01 17:27:04;;;;;;;8.60;4.10;;;;;;;20.47;58.04;100984.38;15594327;28;20049;-50
2023/09/01 17:34:40;;;;;;;9.13;4.53;;;;;;;20.32;58.52;100998.81;15599984;28;20048;-51
2023/09/01 17:42:17;;;;;;;10.15;5.35;;;;;;;20.03;59.50;100999.28;15599724;28;20048;-47
2023/09/01 17:49:50;;;;;;;9.23;5.65;;;;;;;19.96;60.27;101006.91;15611098;28;20049;-51
2023/09/01 17:57:26;;;;;;;7.95;5.20;;;;;;;19.84;59.91;101014.47;15594539;28;20052;-46
2023/09/01 18:05:02;;;;;;;10.77;5.30;;;;;;;19.68;61.06;101026.34;15602306;28;20042;-47
2023/09/01 18:12:37;;;;;;;8.45;5.07;;;;;;;19.46;61.88;101029.19;15607290;28;20069;-45
2023/09/01 18:20:15;;;;;;;11.27;6.28;;;;;;;19.25;62.46;101050.00;15611115;28;20046;-49
2023/09/01 18:27:50;;;;;;;7.55;5.60;;;;;;;19.18;63.58;101044.78;15584875;28;20076;-53
2023/09/01 18:35:24;;;;;;;7.43;5.30;;;;;;;19.16;63.06;101046.09;15591921;28;20053;-49
2023/09/01 18:43:00;;;;;;;10.52;6.00;;;;;;;19.14;63.54;101046.38;15589322;28;20073;-49
2023/09/01 18:50:42;;;;;;;8.07;6.55;;;;;;;19.10;63.22;101050.69;15602062;28;20065;-47
2023/09/01 18:58:21;;;;;;;9.88;6.57;;;;;;;19.09;62.97;101058.03;15550053;28;20041;-60
2023/09/01 19:05:59;;;;;;;10.48;6.43;;;;;;;19.09;63.75;101066.19;15584952;28;20076;-53
2023/09/01 19:13:37;;;;;;;10.43;7.63;;;;;;;18.92;66.19;101067.38;15597621;28;20034;-56
2023/09/01 19:21:12;;;;;;;17.48;11.43;;;;;;;18.71;68.08;101079.97;15610744;28;20080;-47
2023/09/01 19:28:47;;;;;;;21.90;16.67;;;;;;;18.54;68.65;101080.84;15603475;28;20041;-45
2023/09/01 19:36:23;;;;;;;27.13;16.77;;;;;;;18.40;68.96;101103.25;15610981;28;20041;-52
2023/09/01 19:44:02;;;;;;;30.00;16.23;;;;;;;18.49;68.76;101101.72;15571975;28;20054;-48
2023/09/01 19:51:39;;;;;;;20.58;16.95;;;;;;;18.26;70.03;101097.34;15599245;28;20034;-48
2023/09/01 19:59:14;;;;;;;20.73;17.35;;;;;;;18.38;69.61;101103.50;15609943;28;20081;-50
2023/09/01 20:06:48;;;;;;;25.33;18.52;;;;;;;18.21;70.27;101117.13;15595154;28;20053;-51
2023/09/01 20:14:23;;;;;;;19.95;16.38;;;;;;;18.23;69.94;101123.16;15597034;28;20406;-47
2023/09/01 20:22:00;;;;;;;20.17;15.90;;;;;;;18.23;70.04;101136.75;15610395;28;20045;-47
2023/09/01 20:29:35;;;;;;;21.50;17.48;;;;;;;17.65;72.63;101143.47;15607668;28;20497;-47
2023/09/01 20:37:09;;;;;;;18.50;15.27;;;;;;;17.75;71.63;101151.78;15606937;28;20079;-50
2023/09/01 20:44:45;;;;;;;24.30;18.23;;;;;;;17.93;70.54;101150.69;15599987;28;20115;-49
2023/09/01 20:52:20;;;;;;;22.45;17.27;;;;;;;17.87;70.27;101143.56;15599896;28;20052;-46
2023/09/01 20:59:56;;;;;;;20.95;17.58;;;;;;;17.60;70.48;101155.06;15559198;28;20085;-51
2023/09/01 21:07:31;;;;;;;22.67;16.95;;;;;;;17.63;70.45;101161.91;15572462;28;20056;-46
2023/09/01 21:15:09;;;;;;;19.92;16.42;;;;;;;17.43;70.91;101158.81;15607857;28;20095;-51
2023/09/01 21:22:44;;;;;;;21.45;17.80;;;;;;;17.11;71.17;101164.75;15618439;28;20042;-46
2023/09/01 21:30:20;;;;;;;22.70;16.98;;;;;;;17.02;71.34;101168.94;15617216;28;20486;-45
2023/09/01 21:37:54;;;;;;;23.30;17.95;;;;;;;16.95;70.86;101171.81;15616086;28;20136;-47
2023/09/01 21:45:31;;;;;;;21.02;18.33;;;;;;;16.80;70.81;101183.19;15623598;22;20485;-52
2023/09/01 21:53:04;;;;;;;23.52;18.88;;;;;;;16.64;70.82;101194.72;15621022;28;20073;-50
2023/09/01 22:00:39;;;;;;;22.10;18.83;;;;;;;16.48;71.24;101181.94;15619590;28;20041;-50
2023/09/01 22:08:17;;;;;;;23.08;16.17;;;;;;;16.51;70.70;101192.31;15619134;28;20069;-47
2023/09/01 22:16:03;;;;;;;17.45;14.80;;;;;;;16.30;71.26;101199.97;15612958;28;20039;-48
2023/09/01 22:23:38;;;;;;;20.83;16.27;;;;;;;16.11;71.33;101209.28;15619938;28;20092;-47
2023/09/01 22:31:13;;;;;;;18.50;16.45;;;;;;;16.07;71.47;101208.94;15602062;28;20095;-47
2023/09/01 22:38:56;;;;;;;18.08;15.77;;;;;;;16.16;70.32;101205.88;15617503;28;20434;-47
2023/09/01 22:46:40;;;;;;;18.67;15.63;;;;;;;15.70;72.64;101205.59;15612513;28;20416;-48
2023/09/01 22:54:14;;;;;;;18.48;15.20;;;;;;;15.93;71.85;101217.50;15617547;28;20107;-48
2023/09/01 23:01:50;;;;;;;19.77;16.65;;;;;;;15.51;73.13;101225.63;15617728;28;20121;-48
2023/09/01 23:09:26;;;;;;;19.45;15.05;;;;;;;15.51;72.74;101236.47;15616778;28;20038;-48
2023/09/01 23:17:11;;;;;;;20.90;13.90;;;;;;;15.17;73.14;101238.81;15610383;28;20107;-47
2023/09/01 23:24:48;;;;;;;13.88;12.20;;;;;;;14.67;75.24;101241.69;15614399;28;20038;-50
2023/09/01 23:32:26;;;;;;;15.30;12.18;;;;;;;15.02;73.35;101241.09;15616465;28;20041;-47
2023/09/01 23:40:03;;;;;;;14.60;12.38;;;;;;;15.07;72.53;101248.53;15615078;28;20083;-50
2023/09/01 23:47:42;;;;;;;17.45;12.43;;;;;;;15.07;72.01;101257.47;15615671;28;20045;-51
2023/09/01 23:55:17;;;;;;;15.35;13.25;;;;;;;15.00;71.84;101254.00;15614860;28;20045;-49
